• Join FlightAware (Why Join?)
  • Login
  • US Flag 
04:28PM EDT


 

Airport Tracker/Info


-or-


 

Live Flight TrackerFlight Track Log ✈ ACA25 ✈ 10-May-2013 ✈ CYVR - ZSPD / PVG

Flight Track Log - Related Links

Times and Time Zones

All times are in EDT time to prevent confusion due to time zone crossing. See the ACA25 flight status page for this flight to view local times or setup timezone preferences in your user account.

Time Position Orientation Groundspeed Altitude Reporting Facility
EDT Latitude Longitude Course Direction KTS MPH feet Rate Location/Type
02:29PM 49.1667 -123.2167 295° West 160 184 600  Level Vancouver Center
02:30PM 49.1833 -123.2833 291° West 200 230 2,700 1,860 Climbing Vancouver Center
02:31PM 49.1833 -123.3667 270° West 210 242 4,400 1,800 Climbing Vancouver Center
02:32PM 49.2000 -123.5000 281° West 250 288 6,400 2,100 Climbing Vancouver Center
02:33PM 49.2557 -123.6346 301° West  Level FlightAware Approximate
02:33PM 49.2333 -123.6000 297° West 280 322 8,700  Level Vancouver Center
02:34PM 49.3236 -123.7972 308° West  Level FlightAware Approximate
02:34PM 49.2667 -123.7000 297° West 290 334 11,200  Level Vancouver Center
02:35PM 49.3846 -123.9653 295° West  Level FlightAware Approximate
02:35PM 49.3167 -123.8167 303° West 340 391 12,400  Level Vancouver Center
02:36PM 49.3667 -123.9833 295° West 390 449 13,900 1,800 Climbing Vancouver Center
02:37PM 49.4333 -124.1333 304° West 410 472 16,000 1,920 Climbing Vancouver Center
02:38PM 49.5000 -124.2833 304° West 430 495 17,800 1,800 Climbing Vancouver Center
02:39PM 49.5500 -124.4500 295° West 440 506 19,700 1,860 Climbing Vancouver Center
02:40PM 49.6167 -124.6167 302° West 450 518 21,600 1,800 Climbing Vancouver Center
02:41PM 49.6833 -124.8000 299° West 460 529 23,300 1,680 Climbing Vancouver Center
02:42PM 49.7333 -124.9667 295° West 470 541 25,000 1,800 Climbing Vancouver Center
02:43PM 49.8167 -125.1500 305° West 470 541 27,000 1,500 Climbing Vancouver Center
02:44PM 49.8833 -125.3000 305° West 460 529 28,000 1,200 Climbing Vancouver Center
02:45PM 49.9500 -125.4833 300° West 450 518 29,400 960 Climbing Vancouver Center
02:46PM 50.0167 -125.6500 302° West 450 518 30,000 300 Climbing Vancouver Center
02:47PM 50.0667 -125.8000 297° West 450 518 30,000  Level Vancouver Center
02:48PM 50.1333 -125.9667 302° West 450 518 30,000  Level Vancouver Center
02:49PM 50.2000 -126.1500 300° West 450 518 30,000  Level Vancouver Center
02:50PM 50.2667 -126.3000 305° West 450 518 30,000  Level Vancouver Center
02:51PM 50.3500 -126.5000 303° West 460 529 30,000  Level Vancouver Center
02:52PM 50.3833 -126.6500 289° West 440 506 30,000  Level Vancouver Center
02:53PM 50.4667 -126.8167 308° West 440 506 30,000  Level Vancouver Center
02:54PM 50.5333 -126.9833 302° West 450 518 30,000  Level Vancouver Center
02:55PM 50.6000 -127.1667 300° West 450 518 30,000  Level Vancouver Center
02:56PM 50.6500 -127.3333 295° West 450 518 30,000  Level Vancouver Center
02:57PM 50.7333 -127.5000 308° West 460 529 30,000  Level Vancouver Center
02:58PM 50.8000 -127.6500 305° West 470 541 30,000  Level Vancouver Center
02:59PM 50.8667 -127.8500 298° West 470 541 30,000  Level Vancouver Center
03:00PM 50.9500 -127.9833 315° West 470 541 30,000  Level Vancouver Center
03:01PM 51.0333 -128.1833 304° West 460 529 30,000  Level Vancouver Center
03:02PM 51.0833 -128.3500 296° West 460 529 30,000  Level Vancouver Center
03:03PM 51.1667 -128.5167 309° West 460 529 30,000  Level Vancouver Center
03:04PM 51.2333 -128.6833 303° West 460 529 30,000  Level Vancouver Center
03:05PM 51.3167 -128.8500 309° West 460 529 30,000  Level Vancouver Center
03:06PM 51.3833 -129.0167 303° West 470 541 30,000  Level Vancouver Center
03:07PM 51.4500 -129.1833 303° West 470 541 30,000  Level Vancouver Center
03:08PM 51.5333 -129.3500 309° West 470 541 30,000  Level Vancouver Center
03:09PM 51.6000 -129.5333 300° West 470 541 30,000  Level Vancouver Center
03:10PM 51.6833 -129.7000 309° West 460 529 30,000  Level Vancouver Center
03:11PM 51.7333 -129.8667 296° West 450 518 30,000  Level Vancouver Center
03:12PM 51.8167 -130.0333 309° West 450 518 30,000  Level Vancouver Center
03:13PM 51.8667 -130.2167 294° West 450 518 30,000  Level Vancouver Center
03:14PM 51.9500 -130.3833 309° West 450 518 30,000  Level Vancouver Center
03:15PM 52.0167 -130.5667 301° West 460 529 30,000  Level Vancouver Center
03:16PM 52.1000 -130.7333 309° West 460 529 30,000  Level Vancouver Center
03:17PM 52.1500 -130.9000 296° West 460 529 30,000  Level Vancouver Center
03:18PM 52.2167 -131.0833 301° West 460 529 30,000  Level Vancouver Center
03:19PM 52.3000 -131.2667 307° West 460 529 30,000  Level Vancouver Center
03:20PM 52.3500 -131.4333 296° West 460 529 30,000  Level Vancouver Center
03:20PM 52.3833 -131.4500 343° North 460 529 30,000  Level Anchorage Center
03:21PM 52.4667 -131.6333 307° West 460 529 30,000  Level Anchorage Center
03:22PM 52.5167 -131.8000 296° West 450 518 30,100 960 Climbing Anchorage Center
03:23PM 52.5833 -131.9667 303° West 450 518 32,000 1,140 Climbing Anchorage Center
03:24PM 52.6167 -132.1167 290° West 440 506 32,000  Level Vancouver Center
03:25PM 52.6833 -132.2833 303° West 430 495 32,000  Level Vancouver Center
03:26PM 52.7500 -132.4667 301° West 440 506 32,000  Level Vancouver Center
03:27PM 52.8000 -132.6167 299° West 450 518 32,000  Level Vancouver Center
03:28PM 52.8667 -132.8333 297° West 450 518 32,000  Level Vancouver Center
03:29PM 52.9500 -132.9833 313° West 460 529 32,000  Level Vancouver Center
03:30PM 53.0167 -133.2000 297° West 460 529 32,000  Level Vancouver Center
03:31PM 53.0667 -133.3667 297° West 460 529 32,000  Level Vancouver Center
03:32PM 53.1333 -133.5333 304° West 460 529 32,000  Level Vancouver Center
03:33PM 53.2000 -133.7333 299° West 460 529 32,000  Level Vancouver Center
03:34PM 53.2667 -133.9000 304° West 450 518 32,000  Level Vancouver Center
03:35PM 53.3333 -134.1000 299° West 450 518 32,000  Level Vancouver Center
03:36PM 53.4000 -134.2667 304° West 450 518 32,000  Level Vancouver Center
03:37PM 53.4667 -134.4500 301° West 450 518 32,000  Level Vancouver Center
03:38PM 53.5167 -134.6333 295° West 450 518 32,000  Level Vancouver Center
03:39PM 53.5667 -134.8167 295° West 450 518 32,000  Level Vancouver Center
03:40PM 53.6333 -135.0000 302° West 450 518 32,000  Level Vancouver Center
03:40PM 53.6667 -135.0167 343° North 460 529 32,000  Level Anchorage Center
03:41PM 53.7000 -135.1833 289° West 460 529 32,000  Level Vancouver Center
03:42PM 53.7667 -135.3833 299° West 470 541 32,000  Level Vancouver Center
03:42PM 53.8000 -135.4000 344° North 460 529 32,000  Level Anchorage Center
03:43PM 53.8667 -135.6000 300° West 450 518 32,000  Level Anchorage Center
03:44PM 53.9167 -135.7833 295° West 450 518 32,000  Level Anchorage Center
03:45PM 53.9833 -135.9667 302° West 440 506 32,000  Level Anchorage Center
03:46PM 54.0167 -136.1333 289° West 440 506 32,000  Level Vancouver Center
03:47PM 54.0667 -136.3000 297° West 440 506 32,000  Level Vancouver Center
03:48PM 54.1167 -136.5000 293° West 440 506 32,000  Level Vancouver Center
03:48PM 54.1500 -136.4833 16° North 430 495 32,000  Level Anchorage Center
03:49PM 54.1833 -136.6667 287° West 440 506 32,000  Level Vancouver Center
03:50PM 54.2333 -136.8667 293° West 450 518 32,000  Level Vancouver Center
03:51PM 54.3000 -137.0333 304° West 450 518 32,000  Level Vancouver Center
03:52PM 54.3500 -137.2167 295° West 460 529 32,000  Level Vancouver Center
03:52PM 54.3833 -137.2333 344° North 440 506 32,000  Level Anchorage Center
03:53PM 54.4167 -137.4167 287° West 440 506 32,000  Level Vancouver Center
03:54PM 54.4833 -137.6167 300° West 450 518 32,000  Level Vancouver Center
03:55PM 54.5333 -137.8333 292° West 470 541 32,000  Level Vancouver Center
03:56PM 54.6000 -138.0333 300° West 480 552 32,000  Level Vancouver Center
03:56PM 54.6333 -138.0500 344° North 480 552 32,000  Level Anchorage Center
03:57PM 54.6833 -138.2500 293° West 470 541 32,000  Level Anchorage Center
03:58PM 54.7167 -138.4500 286° West 470 541 32,000  Level Vancouver Center
03:59PM 54.7833 -138.6500 300° West 480 552 32,000  Level Vancouver Center
03:59PM 54.8167 -138.6500 360° North 490 564 32,000  Level Anchorage Center
04:00PM 54.8667 -138.8667 292° West 470 541 32,000  Level Anchorage Center
04:01PM 54.9333 -139.0667 300° West 470 541 32,000  Level Anchorage Center
04:02PM 54.9833 -139.2833 292° West 490 564 32,000  Level Anchorage Center
04:03PM 55.0500 -139.5000 298° West 480 552 32,000  Level Anchorage Center
04:04PM 55.0667 -139.6500 281° West 470 541 32,000  Level Vancouver Center
04:05PM 55.1167 -139.8667 292° West 480 552 32,000  Level Vancouver Center
04:05PM 55.1667 -139.9167 330° Northwest 470 541 32,000  Level Anchorage Center
04:06PM 55.2167 -140.1167 294° West 470 541 32,000  Level Anchorage Center
04:07PM 55.2833 -140.3333 298° West 480 552 32,000  Level Anchorage Center
04:09PM 55.4000 -140.7667 296° West 480 552 32,000  Level Anchorage Center
04:10PM 55.4500 -140.9833 292° West 480 552 32,000  Level Anchorage Center
04:11PM 55.5000 -141.1500 298° West 490 564 32,000  Level Anchorage Center
04:12PM 55.5667 -141.4167 294° West 490 564 32,000  Level Anchorage Center
04:13PM 55.6167 -141.6167 294° West 480 552 32,000  Level Anchorage Center
04:14PM 55.6833 -141.8500 297° West 480 552 32,000  Level Anchorage Center
04:15PM 55.7333 -142.0833 291° West 490 564 32,000  Level Anchorage Center
04:16PM 55.7833 -142.2833 294° West 480 552 32,000  Level Anchorage Center
04:17PM 55.8333 -142.5000 292° West 470 541 32,000  Level Anchorage Center
04:18PM 55.8833 -142.7167 292° West 480 552 32,000  Level Anchorage Center
04:19PM 55.9333 -142.9333 292° West 490 564 32,000  Level Anchorage Center
04:20PM 56.0000 -143.1667 297° West 480 552 32,000  Level Anchorage Center
04:21PM 56.0500 -143.4000 291° West 490 564 32,000  Level Anchorage Center
04:22PM 56.1000 -143.6333 291° West 480 552 32,000  Level Anchorage Center
04:23PM 56.1500 -143.8500 293° West 480 552 32,000  Level Anchorage Center
04:24PM 56.2167 -144.0833 297° West 490 564 32,000  Level Anchorage Center
04:26PM 56.2667 -144.3167 291° West 490 564 32,000  Level Anchorage Center
04:26PM 56.3167 -144.5500 291° West 490 564 32,000  Level Anchorage Center
04:28PM 56.3667 -144.7667 293° West 490 564 32,000  Level Anchorage Center
04:29PM 56.4167 -145.0000 291° West 480 552 32,000  Level Anchorage Center
04:30PM 56.4667 -145.2333 291° West 490 564 32,000  Level Anchorage Center
04:31PM 56.5167 -145.4667 291° West 490 564 32,000  Level Anchorage Center
04:32PM 56.5667 -145.6833 293° West 490 564 32,000  Level Anchorage Center
04:33PM 56.6000 -145.9333 284° West 490 564 32,000  Level Anchorage Center
04:34PM 56.6500 -146.1500 293° West 480 552 32,000  Level Anchorage Center
04:35PM 56.7000 -146.4000 290° West 500 575 32,000  Level Anchorage Center
04:36PM 56.7500 -146.6333 291° West 490 564 32,000  Level Anchorage Center
04:37PM 56.8000 -146.8500 293° West 470 541 32,000  Level Anchorage Center
04:38PM 56.8500 -147.1000 290° West 500 575 32,000  Level Anchorage Center
04:39PM 56.8833 -147.3500 284° West 500 575 32,000  Level Anchorage Center
04:40PM 56.9333 -147.5833 292° West 490 564 32,000  Level Anchorage Center
04:41PM 56.9833 -147.8167 292° West 480 552 32,000  Level Anchorage Center
04:42PM 57.0333 -148.0500 292° West 490 564 32,000  Level Anchorage Center
04:43PM 57.0667 -148.3000 284° West 490 564 32,000  Level Anchorage Center
04:44PM 57.1167 -148.5333 292° West 490 564 32,000  Level Anchorage Center
04:45PM 57.1667 -148.7667 292° West 490 564 32,000  Level Anchorage Center
04:46PM 57.2167 -149.0167 290° West 500 575 32,000  Level Anchorage Center
04:47PM 57.2667 -149.2500 292° West 490 564 32,000  Level Anchorage Center
04:48PM 57.3167 -149.4833 292° West 500 575 32,000  Level Anchorage Center
04:49PM 57.3667 -149.7333 290° West 500 575 32,000  Level Anchorage Center
04:50PM 57.4167 -149.9667 292° West 490 564 32,000  Level Anchorage Center
04:51PM 57.4667 -150.2000 292° West 480 552 32,000  Level Anchorage Center
04:52PM 57.5167 -150.4500 291° West 480 552 32,000  Level Anchorage Center
04:53PM 57.5667 -150.6833 292° West 490 564 32,000  Level Anchorage Center
04:54PM 57.6167 -150.9333 291° West 490 564 32,000  Level Anchorage Center
04:55PM 57.6500 -151.1667 285° West 490 564 32,000  Level Anchorage Center
04:56PM 57.7000 -151.4000 292° West 490 564 32,000  Level Anchorage Center
04:57PM 57.7500 -151.6500 291° West 490 564 32,000  Level Anchorage Center
04:58PM 57.8000 -151.8833 292° West 480 552 32,000  Level Anchorage Center
04:59PM 57.8333 -152.1167 285° West 490 564 32,000  Level Anchorage Center
05:00PM 57.8833 -152.3667 291° West 490 564 32,000  Level Anchorage Center
05:01PM 57.9333 -152.6167 291° West 490 564 32,000  Level Anchorage Center
05:02PM 57.9667 -152.8500 285° West 480 552 32,000  Level Anchorage Center
05:03PM 58.0167 -153.0833 292° West 480 552 32,000  Level Anchorage Center
05:04PM 58.0500 -153.3333 284° West 480 552 32,000  Level Anchorage Center
05:05PM 58.1000 -153.5667 292° West 480 552 32,000  Level Anchorage Center
05:06PM 58.1333 -153.8167 284° West 470 541 32,000  Level Anchorage Center
05:07PM 58.1667 -154.0500 285° West 480 552 32,000  Level Anchorage Center
05:08PM 58.2167 -154.3000 291° West 470 541 32,000  Level Anchorage Center
05:09PM 58.2500 -154.5167 286° West 480 552 32,000  Level Anchorage Center
05:10PM 58.2833 -154.7667 284° West 480 552 32,000  Level Anchorage Center
05:11PM 58.3167 -155.0167 284° West 470 541 32,000  Level Anchorage Center
05:12PM 58.3500 -155.2667 284° West 470 541 32,000  Level Anchorage Center
05:13PM 58.3833 -155.5000 285° West 470 541 32,000  Level Anchorage Center
05:14PM 58.4167 -155.7333 285° West 460 529 32,000  Level Anchorage Center
05:15PM 58.4500 -155.9833 284° West 470 541 32,000  Level Anchorage Center
05:16PM 58.4833 -156.2333 284° West 460 529 32,000  Level Anchorage Center
05:17PM 58.5167 -156.4667 285° West 470 541 32,000  Level Anchorage Center
05:19PM 58.5833 -156.9667 285° West 450 518 32,000  Level Anchorage Center
05:20PM 58.6167 -157.2167 284° West 460 529 32,000  Level Anchorage Center
05:21PM 58.6333 -157.4500 278° West 450 518 32,000  Level Anchorage Center
05:22PM 58.6667 -157.6833 285° West 460 529 32,000  Level Anchorage Center
05:23PM 58.7000 -157.9167 285° West 450 518 32,000  Level Anchorage Center
05:24PM 58.7167 -158.1667 277° West 450 518 32,000  Level Anchorage Center
05:25PM 58.7500 -158.4000 285° West 440 506 32,000  Level Anchorage Center
05:26PM 58.7833 -158.6333 286° West 440 506 32,000  Level Anchorage Center
05:27PM 58.8000 -158.8667 278° West 440 506 32,000  Level Anchorage Center
05:28PM 58.8333 -159.1000 286° West 440 506 32,000  Level Anchorage Center
05:29PM 58.8500 -159.3333 278° West 440 506 32,000  Level Anchorage Center
05:30PM 58.8833 -159.5833 285° West 450 518 32,000  Level Anchorage Center
05:31PM 58.9000 -159.8167 278° West 440 506 32,000  Level Anchorage Center
05:32PM 58.9167 -160.0500 278° West 440 506 32,000  Level Anchorage Center
05:33PM 58.9500 -160.2833 286° West 440 506 32,000  Level Anchorage Center
05:34PM 58.9667 -160.5167 278° West 440 506 32,000  Level Anchorage Center
05:35PM 58.9833 -160.7500 278° West 440 506 32,000  Level Anchorage Center
05:36PM 59.0167 -160.9833 286° West 440 506 32,000  Level Anchorage Center
05:37PM 59.0333 -161.2333 277° West 440 506 32,000  Level Anchorage Center
05:38PM 59.0500 -161.4667 278° West 440 506 32,000  Level Anchorage Center
05:39PM 59.0833 -161.7000 286° West 440 506 32,000  Level Anchorage Center
05:40PM 59.1000 -161.9333 278° West 450 518 32,000  Level Anchorage Center
05:41PM 59.1167 -162.1833 278° West 460 529 32,000  Level Anchorage Center
05:42PM 59.1333 -162.4167 278° West 440 506 32,000  Level Anchorage Center
05:43PM 59.1500 -162.6500 278° West 440 506 32,000  Level Anchorage Center
05:44PM 59.1667 -162.8833 278° West 440 506 32,000  Level Anchorage Center
05:45PM 59.1833 -163.1167 278° West 440 506 32,000  Level Anchorage Center
05:46PM 59.2000 -163.3667 278° West 440 506 32,000  Level Anchorage Center
05:47PM 59.2167 -163.6000 278° West 440 506 32,000  Level Anchorage Center
05:48PM 59.2333 -163.8333 278° West 440 506 32,000  Level Anchorage Center
05:49PM 59.2500 -164.0833 278° West 440 506 32,000  Level Anchorage Center
05:50PM 59.2667 -164.3167 278° West 440 506 32,000  Level Anchorage Center
05:51PM 59.2833 -164.5500 278° West 440 506 32,000  Level Anchorage Center
05:52PM 59.3000 -164.8000 278° West 440 506 32,000  Level Anchorage Center
05:53PM 59.3167 -165.0333 278° West 440 506 32,000  Level Anchorage Center
05:54PM 59.3333 -165.2667 278° West 430 495 32,000  Level Anchorage Center
05:55PM 59.3333 -165.5000 270° West 420 483 32,000  Level Anchorage Center
05:56PM 59.3500 -165.7833 277° West 430 495 32,000  Level Anchorage Center
05:57PM 59.3667 -165.9500 281° West 410 472 32,000  Level Anchorage Center
05:58PM 59.3833 -166.1833 278° West 420 483 32,000  Level Anchorage Center
05:59PM 59.3833 -166.4333 270° West 410 472 32,000  Level Anchorage Center
06:00PM 59.4000 -166.6500 279° West 410 472 32,000  Level Anchorage Center
06:01PM 59.4000 -166.8833 270° West 410 472 32,000  Level Anchorage Center
06:02PM 59.4167 -167.1000 279° West 410 472 32,000  Level Anchorage Center
06:03PM 59.4333 -167.3167 279° West 400 460 32,000  Level Anchorage Center
06:04PM 59.4333 -167.5500 270° West 400 460 32,000  Level Anchorage Center
06:05PM 59.4500 -167.7667 279° West 400 460 32,000  Level Anchorage Center
06:06PM 59.4500 -167.9833 270° West 400 460 32,000  Level Anchorage Center
06:07PM 59.4500 -168.2000 270° West 380 437 32,000  Level Anchorage Center
06:08PM 59.4667 -168.4167 279° West 390 449 32,000  Level Anchorage Center
06:09PM 59.4667 -168.6500 270° West 400 460 32,000  Level Anchorage Center
06:10PM 59.4833 -168.8500 279° West 380 437 32,000  Level Anchorage Center
06:11PM 59.4833 -169.0667 270° West 390 449 32,000  Level Anchorage Center
06:12PM 59.4833 -169.2833 270° West 390 449 32,000  Level Anchorage Center
06:13PM 59.5000 -169.5167 278° West 400 460 32,000  Level Anchorage Center
06:14PM 59.5000 -169.7333 270° West 400 460 32,000  Level Anchorage Center
06:15PM 59.5000 -169.9500 270° West 400 460 32,000  Level Anchorage Center
06:16PM 59.5167 -170.1667 279° West 390 449 32,000  Level Anchorage Center
06:17PM 59.5167 -170.3833 270° West 390 449 32,000  Level Anchorage Center
06:18PM 59.5167 -170.6000 270° West 400 460 32,000  Level Anchorage Center
06:19PM 59.5167 -170.8167 270° West 390 449 32,000  Level Anchorage Center
06:20PM 59.5167 -171.0500 270° West 400 460 32,000  Level Anchorage Center
06:21PM 59.5167 -171.2500 270° West 400 460 32,000  Level Anchorage Center
06:22PM 59.5333 -171.4500 279° West 370 426 32,000  Level Anchorage Center
06:23PM 59.5333 -171.6667 270° West 390 449 32,000  Level Anchorage Center
06:24PM 59.5333 -171.8833 270° West 380 437 32,000  Level Anchorage Center
06:25PM 59.5000 -172.0833 252° West 370 426 32,000  Level Anchorage Center
06:26PM 59.4500 -172.2833 244° Southwest 390 449 32,000  Level Anchorage Center
06:27PM 59.4167 -172.4833 252° West 390 449 32,000  Level Anchorage Center
06:28PM 59.3667 -172.6833 244° Southwest 390 449 32,000  Level Anchorage Center
06:29PM 59.3333 -172.8833 252° West 380 437 32,000  Level Anchorage Center
06:30PM 59.2833 -173.0667 242° Southwest 370 426 32,000  Level Anchorage Center
06:31PM 59.2500 -173.2667 252° West 390 449 32,000  Level Anchorage Center
06:32PM 59.2167 -173.4500 251° West 370 426 32,000  Level Anchorage Center
06:33PM 59.1667 -173.6333 242° Southwest 380 437 32,000  Level Anchorage Center
06:34PM 59.1333 -173.8333 252° West 370 426 32,000  Level Anchorage Center
06:35PM 59.0833 -174.0167 242° Southwest 370 426 32,000  Level Anchorage Center
06:36PM 59.0500 -174.2000 251° West 370 426 32,000 420 Level Anchorage Center
06:37PM 59.0000 -174.3833 242° Southwest 390 449 32,900 720 Climbing Anchorage Center
06:38PM 58.9667 -174.5833 252° West 390 449 33,500 540 Climbing Anchorage Center
06:39PM 58.9167 -174.7833 244° Southwest 400 460 34,000 240 Climbing Anchorage Center
06:40PM 58.8667 -175.0000 246° West 410 472 34,000  Level Anchorage Center
06:41PM 58.8167 -175.1833 242° Southwest 400 460 34,000  Level Anchorage Center
06:42PM 58.7833 -175.3833 252° West 410 472 34,000  Level Anchorage Center
06:43PM 58.7333 -175.5833 244° Southwest 400 460 34,000  Level Anchorage Center
06:46PM 58.6488 -175.9424 246° West  Level FlightAware Approximate
06:46PM 58.5667 -176.2667 246° West 420 483 34,000  Level Anchorage Center
06:47PM 58.5333 -176.4500 251° West 410 472 34,000  Level Anchorage Center
06:48PM 58.4833 -176.6500 245° Southwest 400 460 34,000  Level Anchorage Center
06:49PM 58.4333 -176.8333 243° Southwest 400 460 34,000  Level Anchorage Center
06:50PM 58.3833 -177.0167 243° Southwest 390 449 34,000  Level Anchorage Center
06:51PM 58.3333 -177.2000 243° Southwest 400 460 34,000  Level Anchorage Center
06:53PM 58.2702 -177.4612 245° Southwest  Level FlightAware Approximate
07:00PM 57.9073 -178.9066 245° Southwest  Level FlightAware Approximate
07:01PM 57.8541 -179.1106 244° Southwest  Level FlightAware Approximate
07:02PM 57.8006 -179.3141 244° Southwest  Level FlightAware Approximate
07:03PM 57.7468 -179.5170 244° Southwest  Level FlightAware Approximate
07:04PM 57.6926 -179.7192 243° Southwest  Level FlightAware Approximate
07:05PM 57.6382 -179.9209 243° Southwest  Level FlightAware Approximate
07:06PM 57.5823 -180.1209 242° Southwest  Level FlightAware Approximate
07:07PM 57.5255 -180.3197 242° Southwest  Level FlightAware Approximate
07:08PM 57.4684 -180.5179 242° Southwest  Level FlightAware Approximate
07:09PM 57.4109 -180.7154 242° Southwest  Level FlightAware Approximate
07:10PM 57.3532 -180.9123 242° Southwest  Level FlightAware Approximate
07:11PM 57.2951 -181.1086 241° Southwest  Level FlightAware Approximate
07:12PM 57.2368 -181.3043 241° Southwest  Level FlightAware Approximate
07:13PM 57.1781 -181.4993 241° Southwest  Level FlightAware Approximate
07:14PM 57.1191 -181.6937 241° Southwest  Level FlightAware Approximate
07:15PM 57.0599 -181.8875 241° Southwest  Level FlightAware Approximate
07:16PM 57.0003 -182.0807 241° Southwest  Level FlightAware Approximate
07:17PM 56.9405 -182.2733 240° Southwest  Level FlightAware Approximate
07:18PM 56.8803 -182.4653 240° Southwest  Level FlightAware Approximate
07:19PM 56.8199 -182.6566 240° Southwest  Level FlightAware Approximate
07:20PM 56.7593 177.1525 240° Southwest  Level FlightAware Approximate
07:21PM 56.6984 176.9622 240° Southwest  Level FlightAware Approximate
07:22PM 56.6373 176.7726 240° Southwest  Level FlightAware Approximate
07:23PM 56.5759 176.5835 240° Southwest  Level FlightAware Approximate
07:24PM 56.5142 176.3951 239° Southwest  Level FlightAware Approximate
07:25PM 56.4522 176.2072 239° Southwest  Level FlightAware Approximate
07:26PM 56.3899 176.0200 239° Southwest  Level FlightAware Approximate
07:27PM 56.3273 175.8334 239° Southwest  Level FlightAware Approximate
07:28PM 56.2645 175.6474 239° Southwest  Level FlightAware Approximate
07:29PM 56.2014 175.4620 239° Southwest  Level FlightAware Approximate
07:30PM 56.1380 175.2773 238° Southwest  Level FlightAware Approximate
07:31PM 56.0743 175.0931 238° Southwest  Level FlightAware Approximate
07:32PM 56.0103 174.9096 238° Southwest  Level FlightAware Approximate
07:33PM 55.9461 174.7266 238° Southwest  Level FlightAware Approximate
07:34PM 55.8816 174.5443 238° Southwest  Level FlightAware Approximate
07:34PM 56.1000 175.2000 237° Southwest 400 460 34,000  Level Anchorage Center
07:35PM 55.8169 174.3625 238° Southwest  Level FlightAware Approximate
07:35PM 56.0500 175.0167 244° Southwest 430 495 34,000  Level Anchorage Center
07:36PM 55.7519 174.1814 238° Southwest  Level FlightAware Approximate
07:36PM 55.9833 174.8333 237° Southwest 420 483 34,000  Level Anchorage Center
07:37PM 55.6866 174.0009 237° Southwest  Level FlightAware Approximate
07:37PM 55.9333 174.6833 239° Southwest 420 483 34,000  Level Anchorage Center
07:38PM 55.6210 173.8210 237° Southwest  Level FlightAware Approximate
07:38PM 55.8667 174.5000 237° Southwest 420 483 34,000  Level Anchorage Center
07:39PM 55.5552 173.6417 237° Southwest  Level FlightAware Approximate
07:39PM 55.8167 174.3333 242° Southwest 420 483 34,000  Level Anchorage Center
07:40PM 55.7500 174.1500 237° Southwest 420 483 34,000  Level Anchorage Center
07:41PM 55.6667 173.9667 231° Southwest 420 483 34,000  Level Anchorage Center
07:42PM 55.6167 173.8167 239° Southwest 420 483 34,000  Level Anchorage Center
07:43PM 55.5500 173.6167 240° Southwest 420 483 34,000  Level Anchorage Center
07:44PM 55.5000 173.4667 240° Southwest 420 483 34,000  Level Anchorage Center
07:45PM 55.4167 173.2833 231° Southwest 430 495 34,000  Level Anchorage Center
07:46PM 55.3667 173.1333 240° Southwest 420 483 34,000  Level Anchorage Center
07:47PM 55.3000 172.9500 237° Southwest 420 483 34,000  Level Anchorage Center
07:48PM 55.2333 172.8000 232° Southwest 430 495 34,000  Level Anchorage Center
07:49PM 55.1667 172.6000 240° Southwest 430 495 34,000  Level Anchorage Center
07:50PM 55.1000 172.4167 238° Southwest 420 483 34,000  Level Anchorage Center
07:51PM 55.0333 172.2667 232° Southwest 430 495 34,000  Level Anchorage Center
07:52PM 54.9667 172.0833 238° Southwest 430 495 34,000  Level Anchorage Center
07:53PM 54.9000 171.9333 232° Southwest 430 495 34,000  Level Anchorage Center
07:54PM 54.8333 171.7500 238° Southwest 450 518 34,000  Level Anchorage Center
07:55PM 54.7667 171.6000 232° Southwest 440 506 34,000  Level Anchorage Center
07:56PM 54.7000 171.4167 238° Southwest 430 495 34,000  Level Anchorage Center
07:57PM 54.6333 171.2667 233° Southwest 440 506 34,000  Level Anchorage Center
07:58PM 54.5500 171.0833 232° Southwest 440 506 34,000  Level Anchorage Center
07:59PM 54.4833 170.9000 238° Southwest 430 495 34,000  Level Anchorage Center
08:00PM 54.4167 170.7667 229° Southwest 440 506 34,000  Level Anchorage Center
08:01PM 54.3333 170.5667 235° Southwest 460 529 34,000  Level Anchorage Center
08:02PM 54.2667 170.4333 229° Southwest 430 495 34,000  Level Anchorage Center
08:03PM 54.1833 170.2500 232° Southwest 440 506 34,000  Level Anchorage Center
08:04PM 54.1333 170.1000 240° Southwest 440 506 34,000  Level Anchorage Center
08:05PM 54.0500 169.9167 232° Southwest 430 495 34,000  Level Anchorage Center
08:06PM 53.9667 169.7333 232° Southwest 440 506 34,000  Level Anchorage Center
08:07PM 53.9000 169.5833 233° Southwest 440 506 34,000  Level Anchorage Center
08:08PM 53.8167 169.4167 230° Southwest 450 518 34,000  Level Anchorage Center
08:09PM 53.7500 169.2667 233° Southwest 440 506 34,000  Level Anchorage Center
08:10PM 53.6833 169.0833 239° Southwest 460 529 34,000  Level Anchorage Center
08:11PM 53.6333 168.9167 243° Southwest 460 529 34,000  Level Anchorage Center
08:12PM 53.5667 168.7167 241° Southwest 430 495 34,000  Level Anchorage Center
08:15PM 53.4656 168.4226 240° Southwest  Level FlightAware Approximate
08:22PM 53.0404 167.2120 240° Southwest  Level FlightAware Approximate
08:23PM 52.9787 167.0410 239° Southwest  Level FlightAware Approximate
08:24PM 52.9168 166.8704 239° Southwest  Level FlightAware Approximate
08:25PM 52.8546 166.7004 239° Southwest  Level FlightAware Approximate
08:26PM 52.7922 166.5308 239° Southwest  Level FlightAware Approximate
08:27PM 52.7295 166.3617 239° Southwest  Level FlightAware Approximate
08:28PM 52.6667 166.1931 238° Southwest  Level FlightAware Approximate
08:29PM 52.6035 166.0250 238° Southwest  Level FlightAware Approximate
08:30PM 52.5401 165.8575 238° Southwest  Level FlightAware Approximate
08:31PM 52.4760 165.6908 238° Southwest  Level FlightAware Approximate
08:32PM 52.4118 165.5246 238° Southwest  Level FlightAware Approximate
08:33PM 52.3472 165.3589 238° Southwest  Level FlightAware Approximate
08:34PM 52.2825 165.1936 237° Southwest  Level FlightAware Approximate
08:35PM 52.2175 165.0289 237° Southwest  Level FlightAware Approximate
08:36PM 52.1523 164.8646 237° Southwest  Level FlightAware Approximate
08:37PM 52.0869 164.7009 237° Southwest  Level FlightAware Approximate
08:38PM 52.0212 164.5376 237° Southwest  Level FlightAware Approximate
08:39PM 51.9553 164.3747 237° Southwest  Level FlightAware Approximate
08:40PM 51.8892 164.2124 237° Southwest  Level FlightAware Approximate
08:41PM 51.8229 164.0505 237° Southwest  Level FlightAware Approximate
08:42PM 51.7563 163.8891 236° Southwest  Level FlightAware Approximate
08:43PM 51.6896 163.7282 236° Southwest  Level FlightAware Approximate
08:44PM 51.6225 163.5679 236° Southwest  Level FlightAware Approximate
08:45PM 51.5549 163.4083 236° Southwest  Level FlightAware Approximate
08:46PM 51.4872 163.2492 236° Southwest  Level FlightAware Approximate
08:47PM 51.4192 163.0905 236° Southwest  Level FlightAware Approximate
08:48PM 51.3511 162.9323 235° Southwest  Level FlightAware Approximate
08:49PM 51.2827 162.7746 235° Southwest  Level FlightAware Approximate
08:50PM 51.2141 162.6173 235° Southwest  Level FlightAware Approximate
08:51PM 51.1453 162.4605 235° Southwest  Level FlightAware Approximate
08:52PM 51.0763 162.3042 235° Southwest  Level FlightAware Approximate
08:53PM 51.0071 162.1483 235° Southwest  Level FlightAware Approximate
08:54PM 50.9376 161.9929 235° Southwest  Level FlightAware Approximate
08:55PM 50.8688 161.8371 235° Southwest  Level FlightAware Approximate
08:56PM 50.7999 161.6816 235° Southwest  Level FlightAware Approximate
08:57PM 50.7307 161.5266 235° Southwest  Level FlightAware Approximate
08:58PM 50.6614 161.3721 235° Southwest  Level FlightAware Approximate
08:59PM 50.5918 161.2180 235° Southwest  Level FlightAware Approximate
09:00PM 50.5220 161.0643 235° Southwest  Level FlightAware Approximate
09:01PM 50.4520 160.9112 234° Southwest  Level FlightAware Approximate
09:02PM 50.3819 160.7584 234° Southwest  Level FlightAware Approximate
09:03PM 50.3115 160.6062 234° Southwest  Level FlightAware Approximate
09:04PM 50.2409 160.4543 234° Southwest  Level FlightAware Approximate
09:05PM 50.1702 160.3029 234° Southwest  Level FlightAware Approximate
09:06PM 50.0995 160.1521 234° Southwest  Level FlightAware Approximate
09:07PM 50.0287 160.0018 234° Southwest  Level FlightAware Approximate
09:08PM 49.9576 159.8519 234° Southwest  Level FlightAware Approximate
09:09PM 49.8863 159.7025 234° Southwest  Level FlightAware Approximate
09:10PM 49.8149 159.5535 233° Southwest  Level FlightAware Approximate
09:11PM 49.7433 159.4049 233° Southwest  Level FlightAware Approximate
09:12PM 49.6713 159.2740 233° Southwest  Level FlightAware Approximate
09:13PM 49.5996 159.1260 233° Southwest  Level FlightAware Approximate
09:14PM 49.5276 158.9785 233° Southwest  Level FlightAware Approximate
09:15PM 49.4555 158.8313 233° Southwest  Level FlightAware Approximate
09:16PM 49.3832 158.6847 233° Southwest  Level FlightAware Approximate
09:17PM 49.3107 158.5384 233° Southwest  Level FlightAware Approximate
09:18PM 49.2380 158.3926 233° Southwest  Level FlightAware Approximate
09:19PM 49.1637 158.2489 232° Southwest  Level FlightAware Approximate
09:20PM 49.0891 158.1058 232° Southwest  Level FlightAware Approximate
09:21PM 49.0144 157.9631 231° Southwest  Level FlightAware Approximate
09:22PM 48.9394 157.8208 231° Southwest  Level FlightAware Approximate
09:23PM 48.8643 157.6790 231° Southwest  Level FlightAware Approximate
09:24PM 48.7891 157.5375 231° Southwest  Level FlightAware Approximate
09:25PM 48.7139 157.3962 232° Southwest  Level FlightAware Approximate
09:26PM 48.6395 157.2542 232° Southwest  Level FlightAware Approximate
09:27PM 48.5648 157.1126 231° Southwest  Level FlightAware Approximate
09:28PM 48.4900 156.9715 231° Southwest  Level FlightAware Approximate
09:29PM 48.4150 156.8307 231° Southwest  Level FlightAware Approximate
09:30PM 48.3399 156.6904 231° Southwest  Level FlightAware Approximate
09:31PM 48.2646 156.5505 231° Southwest  Level FlightAware Approximate
09:32PM 48.1891 156.4110 231° Southwest  Level FlightAware Approximate
09:33PM 48.1134 156.2719 231° Southwest  Level FlightAware Approximate
09:34PM 48.0376 156.1332 231° Southwest  Level FlightAware Approximate
09:35PM 47.9616 155.9949 231° Southwest  Level FlightAware Approximate
09:36PM 47.8854 155.8571 231° Southwest  Level FlightAware Approximate
09:37PM 47.8091 155.7196 230° Southwest  Level FlightAware Approximate
09:38PM 47.7326 155.5826 230° Southwest  Level FlightAware Approximate
09:39PM 47.6560 155.4459 230° Southwest  Level FlightAware Approximate
09:40PM 47.5792 155.3097 230° Southwest  Level FlightAware Approximate
09:41PM 47.5022 155.1738 230° Southwest  Level FlightAware Approximate
09:42PM 47.4251 155.0384 230° Southwest  Level FlightAware Approximate
09:43PM 47.3478 154.9033 230° Southwest  Level FlightAware Approximate
09:44PM 47.2703 154.7687 230° Southwest  Level FlightAware Approximate
09:45PM 47.1927 154.6344 230° Southwest  Level FlightAware Approximate
09:46PM 47.1150 154.5005 230° Southwest  Level FlightAware Approximate
09:47PM 47.0370 154.3671 229° Southwest  Level FlightAware Approximate
09:48PM 46.9590 154.2340 229° Southwest  Level FlightAware Approximate
09:49PM 46.8807 154.1013 229° Southwest  Level FlightAware Approximate
09:50PM 46.8024 153.9689 229° Southwest  Level FlightAware Approximate
09:51PM 46.7238 153.8370 229° Southwest  Level FlightAware Approximate
09:52PM 46.6452 153.7055 229° Southwest  Level FlightAware Approximate
09:53PM 46.5663 153.5743 229° Southwest  Level FlightAware Approximate
09:54PM 46.4874 153.4435 229° Southwest  Level FlightAware Approximate
09:55PM 46.4082 153.3131 229° Southwest  Level FlightAware Approximate
09:56PM 46.3289 153.1831 229° Southwest  Level FlightAware Approximate
09:57PM 46.2495 153.0535 228° Southwest  Level FlightAware Approximate
09:58PM 46.1695 152.9247 228° Southwest  Level FlightAware Approximate
09:59PM 46.0891 152.7968 228° Southwest  Level FlightAware Approximate
10:00PM 46.0085 152.6692 228° Southwest  Level FlightAware Approximate
10:01PM 45.9278 152.5419 228° Southwest  Level FlightAware Approximate
10:02PM 45.8469 152.4151 228° Southwest  Level FlightAware Approximate
10:03PM 45.7659 152.2886 227° Southwest  Level FlightAware Approximate
10:04PM 45.6848 152.1625 227° Southwest  Level FlightAware Approximate
10:05PM 45.6035 152.0367 227° Southwest  Level FlightAware Approximate
10:06PM 45.5221 151.9114 227° Southwest  Level FlightAware Approximate
10:07PM 45.4406 151.7863 227° Southwest  Level FlightAware Approximate
10:08PM 45.3589 151.6617 227° Southwest  Level FlightAware Approximate
10:09PM 45.2771 151.5374 227° Southwest  Level FlightAware Approximate
10:10PM 45.1951 151.4134 227° Southwest  Level FlightAware Approximate
10:11PM 45.1130 151.2898 227° Southwest  Level FlightAware Approximate
10:12PM 45.0308 151.1666 227° Southwest  Level FlightAware Approximate
10:13PM 44.9484 151.0437 227° Southwest  Level FlightAware Approximate
10:14PM 44.8660 150.9212 226° Southwest  Level FlightAware Approximate
10:15PM 44.7833 150.7990 226° Southwest  Level FlightAware Approximate
10:16PM 44.7006 150.6772 226° Southwest  Level FlightAware Approximate
10:17PM 44.6177 150.5557 226° Southwest  Level FlightAware Approximate
10:18PM 44.5347 150.4346 226° Southwest  Level FlightAware Approximate
10:19PM 44.4516 150.3138 226° Southwest  Level FlightAware Approximate
10:20PM 44.3683 150.1933 226° Southwest  Level FlightAware Approximate
10:21PM 44.2850 150.0733 226° Southwest  Level FlightAware Approximate
10:22PM 44.2014 149.9535 226° Southwest  Level FlightAware Approximate
10:23PM 44.1178 149.8341 226° Southwest  Level FlightAware Approximate
10:24PM 44.0340 149.7150 226° Southwest  Level FlightAware Approximate
10:25PM 43.9502 149.5962 226° Southwest  Level FlightAware Approximate
10:26PM 43.8662 149.4778 225° Southwest  Level FlightAware Approximate
10:27PM 43.7820 149.3598 225° Southwest  Level FlightAware Approximate
10:28PM 43.6978 149.2420 225° Southwest  Level FlightAware Approximate
10:29PM 43.6134 149.1246 225° Southwest  Level FlightAware Approximate
10:30PM 43.5289 149.0075 225° Southwest  Level FlightAware Approximate
10:31PM 43.4443 148.8907 225° Southwest  Level FlightAware Approximate
10:32PM 43.3596 148.7743 225° Southwest  Level FlightAware Approximate
10:33PM 43.2747 148.6582 225° Southwest  Level FlightAware Approximate
10:34PM 43.1898 148.5424 225° Southwest  Level FlightAware Approximate
10:35PM 43.1047 148.4270 225° Southwest  Level FlightAware Approximate
10:36PM 43.0195 148.3118 225° Southwest  Level FlightAware Approximate
10:37PM 42.9342 148.1970 225° Southwest  Level FlightAware Approximate
10:38PM 42.8488 148.0825 225° Southwest  Level FlightAware Approximate
10:39PM 42.7632 147.9683 224° Southwest  Level FlightAware Approximate
10:40PM 42.6776 147.8544 224° Southwest  Level FlightAware Approximate
10:41PM 42.5918 147.7409 224° Southwest  Level FlightAware Approximate
10:42PM 42.5060 147.6276 224° Southwest  Level FlightAware Approximate
10:43PM 42.4194 147.5140 224° Southwest  Level FlightAware Approximate
10:44PM 42.3333 147.3999 225° Southwest  Level FlightAware Approximate
10:45PM 42.2474 147.2857 225° Southwest  Level FlightAware Approximate
10:46PM 42.1614 147.1718 224° Southwest  Level FlightAware Approximate
10:47PM 42.0753 147.0581 224° Southwest  Level FlightAware Approximate
10:48PM 41.9891 146.9448 224° Southwest  Level FlightAware Approximate
10:49PM 41.9027 146.8320 224° Southwest  Level FlightAware Approximate
10:50PM 41.8156 146.7202 224° Southwest  Level FlightAware Approximate
10:51PM 41.7283 146.6087 224° Southwest  Level FlightAware Approximate
10:52PM 41.6410 146.4976 224° Southwest  Level FlightAware Approximate
10:53PM 41.5536 146.3867 224° Southwest  Level FlightAware Approximate
10:54PM 41.4660 146.2762 223° Southwest  Level FlightAware Approximate
10:55PM 41.3784 146.1659 223° Southwest  Level FlightAware Approximate
10:56PM 41.2906 146.0560 223° Southwest  Level FlightAware Approximate
10:57PM 41.2028 145.9463 223° Southwest  Level FlightAware Approximate
10:58PM 41.1148 145.8369 223° Southwest  Level FlightAware Approximate
10:59PM 41.0268 145.7278 223° Southwest  Level FlightAware Approximate
11:00PM 40.9386 145.6190 223° Southwest  Level FlightAware Approximate
11:01PM 40.8504 145.5105 223° Southwest  Level FlightAware Approximate
11:02PM 40.7620 145.4023 223° Southwest  Level FlightAware Approximate
11:03PM 40.6735 145.2944 223° Southwest  Level FlightAware Approximate
11:04PM 40.5850 145.1868 223° Southwest  Level FlightAware Approximate
11:05PM 40.4963 145.0794 223° Southwest  Level FlightAware Approximate
11:06PM 40.4101 144.9695 238° Southwest  Level FlightAware Approximate
11:07PM 40.3460 144.8356 238° Southwest  Level FlightAware Approximate
11:08PM 40.2818 144.7018 238° Southwest  Level FlightAware Approximate
11:09PM 40.2175 144.5684 238° Southwest  Level FlightAware Approximate
11:10PM 40.1530 144.4352 238° Southwest  Level FlightAware Approximate
11:11PM 40.0883 144.3022 238° Southwest  Level FlightAware Approximate
11:12PM 40.0235 144.1695 238° Southwest  Level FlightAware Approximate
11:13PM 39.9585 144.0371 237° Southwest  Level FlightAware Approximate
11:14PM 39.8934 143.9049 237° Southwest  Level FlightAware Approximate
11:15PM 39.8283 143.7728 238° Southwest  Level FlightAware Approximate
11:16PM 39.7646 143.6397 238° Southwest  Level FlightAware Approximate
11:17PM 39.7008 143.5068 238° Southwest  Level FlightAware Approximate
11:18PM 39.6368 143.3742 238° Southwest  Level FlightAware Approximate
11:19PM 39.5727 143.2418 238° Southwest  Level FlightAware Approximate
11:20PM 39.5084 143.1096 238° Southwest  Level FlightAware Approximate
11:21PM 39.4440 142.9777 238° Southwest  Level FlightAware Approximate
11:22PM 39.3794 142.8461 238° Southwest  Level FlightAware Approximate
11:23PM 39.3147 142.7146 238° Southwest  Level FlightAware Approximate
11:24PM 39.2498 142.5835 237° Southwest  Level FlightAware Approximate
11:25PM 39.1784 142.4587 230° Southwest  Level FlightAware Approximate
11:26PM 39.1001 142.3406 230° Southwest  Level FlightAware Approximate
11:27PM 39.0217 142.2227 229° Southwest  Level FlightAware Approximate
11:28PM 38.9432 142.1051 229° Southwest  Level FlightAware Approximate
11:29PM 38.8646 141.9878 229° Southwest  Level FlightAware Approximate
11:30PM 38.7859 141.8707 229° Southwest  Level FlightAware Approximate
11:31PM 38.7070 141.7539 229° Southwest  Level FlightAware Approximate
11:32PM 38.6281 141.6374 229° Southwest  Level FlightAware Approximate
11:33PM 38.5490 141.5211 229° Southwest  Level FlightAware Approximate
11:34PM 38.4698 141.4050 229° Southwest  Level FlightAware Approximate
11:35PM 38.3905 141.2892 229° Southwest  Level FlightAware Approximate
11:36PM 38.3111 141.1737 229° Southwest  Level FlightAware Approximate
11:37PM 38.2315 141.0584 229° Southwest  Level FlightAware Approximate
11:38PM 38.1519 140.9434 229° Southwest  Level FlightAware Approximate
11:39PM 38.1212 140.8002 262° West  Level FlightAware Approximate
11:40PM 38.1051 140.6484 262° West  Level FlightAware Approximate
11:41PM 38.0886 140.4967 262° West  Level FlightAware Approximate
11:42PM 38.0729 140.3450 263° West  Level FlightAware Approximate
11:43PM 38.0584 140.1931 263° West  Level FlightAware Approximate
11:44PM 38.0443 140.0411 263° West  Level FlightAware Approximate
11:45PM 38.0300 139.8892 263° West  Level FlightAware Approximate
11:46PM 38.0154 139.7374 263° West  Level FlightAware Approximate
11:47PM 38.0002 139.5857 263° West  Level FlightAware Approximate
11:48PM 37.9847 139.4341 263° West  Level FlightAware Approximate
11:49PM 37.9691 139.2825 263° West  Level FlightAware Approximate
11:50PM 37.9533 139.1310 262° West  Level FlightAware Approximate
11:51PM 37.8936 139.0018 234° Southwest  Level FlightAware Approximate
11:52PM 37.8226 138.8785 234° Southwest  Level FlightAware Approximate
11:53PM 37.7514 138.7555 234° Southwest  Level FlightAware Approximate
11:54PM 37.6801 138.6327 234° Southwest  Level FlightAware Approximate
11:55PM 37.6087 138.5101 234° Southwest  Level FlightAware Approximate
11:56PM 37.5383 138.3868 235° Southwest  Level FlightAware Approximate
11:57PM 37.4685 138.2630 235° Southwest  Level FlightAware Approximate
11:58PM 37.3984 138.1396 235° Southwest  Level FlightAware Approximate
11:59PM 37.3283 138.0163 234° Southwest  Level FlightAware Approximate
12:00AM 37.2567 137.8945 233° Southwest  Level FlightAware Approximate
12:01AM 37.1862 137.7718 234° Southwest  Level FlightAware Approximate
12:02AM 37.1132 137.6516 233° Southwest  Level FlightAware Approximate
12:03AM 37.0399 137.5317 233° Southwest  Level FlightAware Approximate
12:04AM 36.9699 137.4090 237° Southwest  Level FlightAware Approximate
12:05AM 36.9039 137.2829 237° Southwest  Level FlightAware Approximate
12:06AM 36.8378 137.1569 237° Southwest  Level FlightAware Approximate
12:07AM 36.7667 137.0356 232° Southwest  Level FlightAware Approximate
12:08AM 36.6931 136.9166 232° Southwest  Level FlightAware Approximate
12:09AM 36.6194 136.7978 232° Southwest  Level FlightAware Approximate
12:10AM 36.5475 136.6774 234° Southwest  Level FlightAware Approximate
12:11AM 36.4762 136.5566 234° Southwest  Level FlightAware Approximate
12:12AM 36.4047 136.4360 234° Southwest  Level FlightAware Approximate
12:13AM 36.3591 136.2995 253° West  Level FlightAware Approximate
12:14AM 36.3243 136.1562 253° West  Level FlightAware Approximate
12:15AM 36.2894 136.0132 253° West  Level FlightAware Approximate
12:16AM 36.2543 135.8702 253° West  Level FlightAware Approximate
12:17AM 36.2191 135.7273 253° West  Level FlightAware Approximate
12:18AM 36.1837 135.5846 253° West  Level FlightAware Approximate
12:19AM 36.1483 135.4420 253° West  Level FlightAware Approximate
12:20AM 36.1127 135.2994 253° West  Level FlightAware Approximate
12:21AM 36.0770 135.1570 253° West  Level FlightAware Approximate
12:22AM 36.0413 135.0147 253° West  Level FlightAware Approximate
12:23AM 36.0059 134.8723 253° West  Level FlightAware Approximate
12:24AM 35.9703 134.7300 253° West  Level FlightAware Approximate
12:25AM 35.9346 134.5878 253° West  Level FlightAware Approximate
12:26AM 35.8975 134.4463 251° West  Level FlightAware Approximate
12:27AM 35.8590 134.3054 251° West  Level FlightAware Approximate
12:28AM 35.8204 134.1646 251° West  Level FlightAware Approximate
12:29AM 35.7816 134.0240 251° West  Level FlightAware Approximate
12:30AM 35.7426 133.8835 251° West  Level FlightAware Approximate
12:31AM 35.7034 133.7431 251° West  Level FlightAware Approximate
12:32AM 35.6641 133.6029 251° West  Level FlightAware Approximate
12:33AM 35.6246 133.4628 251° West  Level FlightAware Approximate
12:34AM 35.5850 133.3229 251° West  Level FlightAware Approximate
12:35AM 35.5452 133.1831 251° West  Level FlightAware Approximate
12:36AM 35.4956 133.0499 232° Southwest  Level FlightAware Approximate
12:37AM 35.4219 132.9329 232° Southwest  Level FlightAware Approximate
12:38AM 35.3480 132.8161 232° Southwest  Level FlightAware Approximate
12:39AM 35.2727 132.7009 231° Southwest  Level FlightAware Approximate
12:40AM 35.1963 132.5868 231° Southwest  Level FlightAware Approximate
12:41AM 35.1198 132.4729 231° Southwest  Level FlightAware Approximate
12:42AM 35.0432 132.3593 231° Southwest  Level FlightAware Approximate
12:43AM 34.9665 132.2459 230° Southwest  Level FlightAware Approximate
12:44AM 34.8896 132.1327 230° Southwest  Level FlightAware Approximate
12:45AM 34.8127 132.0197 230° Southwest  Level FlightAware Approximate
12:46AM 34.7357 131.9069 230° Southwest  Level FlightAware Approximate
12:47AM 34.6585 131.7943 230° Southwest  Level FlightAware Approximate
12:48AM 34.5814 131.6818 230° Southwest  Level FlightAware Approximate
12:49AM 34.5043 131.5694 230° Southwest  Level FlightAware Approximate
12:50AM 34.4272 131.4572 230° Southwest  Level FlightAware Approximate
12:51AM 34.3499 131.3452 230° Southwest  Level FlightAware Approximate
12:52AM 34.2725 131.2333 230° Southwest  Level FlightAware Approximate
12:53AM 34.1950 131.1217 230° Southwest  Level FlightAware Approximate
12:54AM 34.1174 131.0103 230° Southwest  Level FlightAware Approximate
12:55AM 34.0397 130.8992 230° Southwest  Level FlightAware Approximate
12:56AM 33.9620 130.7882 230° Southwest  Level FlightAware Approximate
12:57AM 33.8837 130.6778 229° Southwest  Level FlightAware Approximate
12:58AM 33.8038 130.5691 229° Southwest  Level FlightAware Approximate
12:59AM 33.7239 130.4607 228° Southwest  Level FlightAware Approximate
01:00AM 33.6457 130.3506 232° Southwest  Level FlightAware Approximate
01:01AM 33.5723 130.2359 232° Southwest  Level FlightAware Approximate
01:02AM 33.4987 130.1214 232° Southwest  Level FlightAware Approximate
01:03AM 33.4251 130.0071 232° Southwest  Level FlightAware Approximate
01:04AM 33.3518 129.8926 233° Southwest  Level FlightAware Approximate
01:05AM 33.2800 129.7768 233° Southwest  Level FlightAware Approximate
01:06AM 33.2081 129.6611 233° Southwest  Level FlightAware Approximate
01:07AM 33.1362 129.5457 233° Southwest  Level FlightAware Approximate
01:08AM 33.0641 129.4305 233° Southwest  Level FlightAware Approximate
01:09AM 32.9919 129.3154 233° Southwest  Level FlightAware Approximate
01:10AM 32.9196 129.2005 233° Southwest  Level FlightAware Approximate
01:11AM 32.8439 129.0893 225° Southwest  Level FlightAware Approximate
01:12AM 32.7637 128.9829 235° Southwest  Level FlightAware Approximate
01:13AM 32.6950 128.8652 235° Southwest  Level FlightAware Approximate
01:14AM 32.6503 128.7349 257° West  Level FlightAware Approximate
01:15AM 32.6223 128.5957 257° West  Level FlightAware Approximate
01:16AM 32.5942 128.4567 257° West  Level FlightAware Approximate
01:17AM 32.5659 128.3177 256° West  Level FlightAware Approximate
01:18AM 32.5374 128.1788 256° West  Level FlightAware Approximate
01:19AM 32.5088 128.0400 256° West  Level FlightAware Approximate
01:20AM 32.4801 127.9012 256° West  Level FlightAware Approximate
01:21AM 32.4512 127.7626 256° West  Level FlightAware Approximate
01:22AM 32.4221 127.6240 256° West  Level FlightAware Approximate
01:23AM 32.3929 127.4856 256° West  Level FlightAware Approximate
01:24AM 32.3635 127.3472 256° West  Level FlightAware Approximate
01:25AM 32.3340 127.2089 256° West  Level FlightAware Approximate
01:26AM 32.3044 127.0707 256° West  Level FlightAware Approximate
01:27AM 32.2746 126.9326 256° West  Level FlightAware Approximate
01:28AM 32.2446 126.7946 256° West  Level FlightAware Approximate
01:29AM 32.2145 126.6567 255° West  Level FlightAware Approximate
01:30AM 32.1841 126.5190 255° West  Level FlightAware Approximate
01:31AM 32.1535 126.3813 255° West  Level FlightAware Approximate
01:32AM 32.1227 126.2437 255° West  Level FlightAware Approximate
01:33AM 32.0919 126.1062 255° West  Level FlightAware Approximate
01:34AM 32.0608 125.9688 255° West  Level FlightAware Approximate
01:35AM 32.0297 125.8315 255° West  Level FlightAware Approximate
01:36AM 31.9983 125.6943 255° West  Level FlightAware Approximate
01:37AM 31.9669 125.5572 255° West  Level FlightAware Approximate
01:38AM 31.9352 125.4202 255° West  Level FlightAware Approximate
01:39AM 31.9035 125.2832 255° West  Level FlightAware Approximate
01:40AM 31.8716 125.1464 255° West  Level FlightAware Approximate
01:41AM 31.8395 125.0096 255° West  Level FlightAware Approximate
01:42AM 31.8100 124.8722 256° West  Level FlightAware Approximate
01:43AM 31.7809 124.7346 256° West  Level FlightAware Approximate
01:44AM 31.7517 124.5971 256° West  Level FlightAware Approximate
01:45AM 31.7223 124.4597 256° West  Level FlightAware Approximate
01:46AM 31.6870 124.3244 252° West  Level FlightAware Approximate
01:47AM 31.6506 124.1894 253° West  Level FlightAware Approximate
01:48AM 31.6145 124.0544 253° West  Level FlightAware Approximate
01:49AM 31.5854 123.9177 255° West  Level FlightAware Approximate
01:50AM 31.5561 123.7806 257° West  Level FlightAware Approximate
01:51AM 31.5256 123.6439 255° West  Level FlightAware Approximate
01:52AM 31.5000 123.5065 270° West  Level FlightAware Approximate
01:53AM 31.4677 123.3707 254° West  Level FlightAware Approximate
01:54AM 31.4400 123.2332 257° West  Level FlightAware Approximate
01:55AM 31.4125 123.0957 257° West  Level FlightAware Approximate
01:56AM 31.3860 122.9581 258° West  Level FlightAware Approximate
01:57AM 31.3601 122.8202 258° West  Level FlightAware Approximate
01:58AM 31.3332 122.6827 258° West  Level FlightAware Approximate
01:59AM 31.3082 122.5447 258° West  Level FlightAware Approximate
02:00AM 31.2758 122.4090 253° West  Level FlightAware Approximate
02:01AM 31.2399 122.2745 253° West  Level FlightAware Approximate
02:02AM 31.2177 122.1374 254° West  Level FlightAware Approximate
02:03AM 31.1833 122.0048 270° West  Level FlightAware Approximate
02:04AM 31.1483 121.8728 259° West  Level FlightAware Approximate
02:05AM 31.1428 121.7924 259° West  Level Estimated
02:06AM 31.1428 121.7924 259° West  Level Estimated
02:07AM 31.1428 121.7924 259° West  Level Estimated
02:08AM 31.1428 121.7924 259° West  Level Estimated
02:09AM 31.1428 121.7924 259° West  Level Estimated
02:10AM 31.1428 121.7924 259° West  Level Estimated
02:11AM 31.1428 121.7924 259° West  Level Estimated
02:12AM 31.1428 121.7924 259° West  Level Estimated
02:13AM 31.1428 121.7924 259° West  Level Estimated
02:14AM 31.1428 121.7924 259° West  Level Estimated
02:15AM 31.1428 121.7924 259° West  Level Estimated
02:16AM 31.1428 121.7924 259° West  Level Estimated
02:17AM 31.1428 121.7924 259° West  Level Estimated
02:18AM 31.1428 121.7924 259° West  Level Estimated
02:19AM 31.1428 121.7924 259° West  Level Estimated
02:20AM 31.1428 121.7924 259° West  Level Estimated
02:21AM 31.1428 121.7924 259° West  Level Estimated
02:22AM 31.1428 121.7924 259° West  Level Estimated
02:23AM 31.1428 121.7924 259° West  Level Estimated